메인 페이지
METAR-TAF:

METAR-TAF

공항 :

김포, 대한민국

김포국제공항

위도: 37-33N, 경도: 126-48E, 고도: 18m

현재 날씨관측

예보는 35분 전, 11:00시(UTC)에 발표되었습니다.
서북서5kt
온도 1°C
습도 21%
기압 1024 hPa
시정 10km 이상
1500m 미만 상공 구름 및 적란운 없음

METAR: RKSS 201100Z 30005KT CAVOK 01/M19 Q1024 NOSIG

시각: 20:35 (11:35 UTC)

예보

예보는 35분 전, 11:00시(UTC)에 발표되었습니다.
예보 대상 시간: 20일 12시부터 21일 18시까지 (UTC)
북서8kt
시정 10km 이상
고도 3000ft 상공 구름 조금
고도 18000ft 상공 구름 많음
전환 중
20일 17시부터 20일 18시까지 (UTC)
동북동5kt
전환 중
20일 22시부터 20일 23시까지 (UTC)
북북서8kt
일시적
21일 06시부터 21일 09시까지 (UTC)
10kt
전환 중
21일 09시부터 21일 10시까지 (UTC)
남남서6kt

TAF: RKSS 201100Z 2012/2118 32008KT 9999 FEW030 BKN180 TNM06/2022Z TX05/2106Z BECMG 2017/2018 06005KT BECMG 2022/2023 33008KT TEMPO 2106/2109 27010KT BECMG 2109/2110 20006KT

4,000개 이상의 공항 관측 자료 및 예보 (METAR 및 TAF 보고).

지도상에서 검색 가능한 기상관측소가 노란 점과 빨간 점으로 표시되어 있습니다.

기상관측소 명을 보려면 표시 위로 마우스를 이동하세요.

날씨 관측과 예보를 보려면 클릭하세요.

지도 변경 : 확대하려면 엑스 표시가 있는 녹색 버튼, 축소하려면 빼기 표시가 있는 녹색 버튼, 다음 페이지의 지도를 보려면 녹색 화살표를 클릭하세요.


METAR-TAF: